sensor_id;sensor_type;location;lat;lon;timestamp;temperature;humidity
56428;DHT22;42331;53.578;9.760;2023-04-03T00:00:13;0.40;99.90
56428;DHT22;42331;53.578;9.760;2023-04-03T00:02:44;0.40;99.90
56428;DHT22;42331;53.578;9.760;2023-04-03T00:05:15;0.40;99.90
56428;DHT22;42331;53.578;9.760;2023-04-03T00:07:46;0.40;99.90
56428;DHT22;42331;53.578;9.760;2023-04-03T00:10:16;0.30;99.90
56428;DHT22;42331;53.578;9.760;2023-04-03T00:12:47;0.40;99.90
56428;DHT22;42331;53.578;9.760;2023-04-03T00:15:18;0.30;99.90
56428;DHT22;42331;53.578;9.760;2023-04-03T00:17:49;0.30;99.90
56428;DHT22;42331;53.578;9.760;2023-04-03T00:20:20;0.40;99.90
56428;DHT22;42331;53.578;9.760;2023-04-03T00:22:50;0.50;99.90
56428;DHT22;42331;53.578;9.760;2023-04-03T00:25:22;0.50;99.90
56428;DHT22;42331;53.578;9.760;2023-04-03T00:27:52;0.50;99.90
56428;DHT22;42331;53.578;9.760;2023-04-03T00:30:23;0.50;99.90
56428;DHT22;42331;53.578;9.760;2023-04-03T00:32:54;0.40;99.90
56428;DHT22;42331;53.578;9.760;2023-04-03T00:35:25;0.40;99.90
56428;DHT22;42331;53.578;9.760;2023-04-03T00:37:56;0.20;99.90
56428;DHT22;42331;53.578;9.760;2023-04-03T00:40:27;0.20;99.90
56428;DHT22;42331;53.578;9.760;2023-04-03T00:43:17;0.20;99.90
56428;DHT22;42331;53.578;9.760;2023-04-03T00:45:52;0.20;99.90
56428;DHT22;42331;53.578;9.760;2023-04-03T00:48:56;0.10;99.90
56428;DHT22;42331;53.578;9.760;2023-04-03T00:51:23;0.10;99.90
56428;DHT22;42331;53.578;9.760;2023-04-03T00:53:58;0.10;99.90
56428;DHT22;42331;53.578;9.760;2023-04-03T00:56:30;0.10;99.90
56428;DHT22;42331;53.578;9.760;2023-04-03T00:59:02;0.10;99.90
56428;DHT22;42331;53.578;9.760;2023-04-03T01:01:34;0.10;99.90
56428;DHT22;42331;53.578;9.760;2023-04-03T01:04:23;0.10;99.90
56428;DHT22;42331;53.578;9.760;2023-04-03T01:09:37;0.00;99.90
56428;DHT22;42331;53.578;9.760;2023-04-03T01:12:22;0.00;99.90
56428;DHT22;42331;53.578;9.760;2023-04-03T01:14:59;0.00;99.90
56428;DHT22;42331;53.578;9.760;2023-04-03T01:25:59;-0.10;99.90
56428;DHT22;42331;53.578;9.760;2023-04-03T01:28:35;-0.10;99.90
56428;DHT22;42331;53.578;9.760;2023-04-03T01:31:19;-0.20;99.90
56428;DHT22;42331;53.578;9.760;2023-04-03T01:33:51;-0.20;99.90
56428;DHT22;42331;53.578;9.760;2023-04-03T01:36:28;-0.20;99.90
56428;DHT22;42331;53.578;9.760;2023-04-03T01:39:00;-0.20;99.90
56428;DHT22;42331;53.578;9.760;2023-04-03T01:41:31;-0.10;99.90
56428;DHT22;42331;53.578;9.760;2023-04-03T01:44:02;-0.10;99.90
56428;DHT22;42331;53.578;9.760;2023-04-03T01:46:34;-0.10;99.90
56428;DHT22;42331;53.578;9.760;2023-04-03T01:49:05;-0.10;99.90
56428;DHT22;42331;53.578;9.760;2023-04-03T01:51:36;-0.20;99.90
56428;DHT22;42331;53.578;9.760;2023-04-03T01:54:07;-0.20;99.90
56428;DHT22;42331;53.578;9.760;2023-04-03T01:56:37;-0.10;99.90
56428;DHT22;42331;53.578;9.760;2023-04-03T01:59:09;-0.20;99.90
56428;DHT22;42331;53.578;9.760;2023-04-03T02:01:40;-0.20;99.90
56428;DHT22;42331;53.578;9.760;2023-04-03T02:04:12;-0.20;99.90
56428;DHT22;42331;53.578;9.760;2023-04-03T02:06:42;-0.20;99.90
56428;DHT22;42331;53.578;9.760;2023-04-03T02:09:13;-0.20;99.90
56428;DHT22;42331;53.578;9.760;2023-04-03T02:11:44;-0.30;99.90
56428;DHT22;42331;53.578;9.760;2023-04-03T02:14:15;-0.20;99.90
56428;DHT22;42331;53.578;9.760;2023-04-03T02:16:45;-0.10;99.90
56428;DHT22;42331;53.578;9.760;2023-04-03T02:19:16;-0.20;99.90
56428;DHT22;42331;53.578;9.760;2023-04-03T02:21:52;-0.20;99.90
56428;DHT22;42331;53.578;9.760;2023-04-03T02:24:23;-0.30;99.90
56428;DHT22;42331;53.578;9.760;2023-04-03T02:26:53;-0.30;99.90
56428;DHT22;42331;53.578;9.760;2023-04-03T02:29:24;-0.30;99.90
56428;DHT22;42331;53.578;9.760;2023-04-03T02:31:55;-0.40;99.90
56428;DHT22;42331;53.578;9.760;2023-04-03T02:34:26;-0.40;99.90
56428;DHT22;42331;53.578;9.760;2023-04-03T02:36:57;-0.40;99.90
56428;DHT22;42331;53.578;9.760;2023-04-03T02:39:27;-0.40;99.90
56428;DHT22;42331;53.578;9.760;2023-04-03T02:41:58;-0.40;99.90
56428;DHT22;42331;53.578;9.760;2023-04-03T02:44:29;-0.40;99.90
56428;DHT22;42331;53.578;9.760;2023-04-03T02:47:00;-0.40;99.90
56428;DHT22;42331;53.578;9.760;2023-04-03T02:49:31;-0.50;99.90
56428;DHT22;42331;53.578;9.760;2023-04-03T02:52:02;-0.50;99.90
56428;DHT22;42331;53.578;9.760;2023-04-03T02:54:32;-0.50;99.90
56428;DHT22;42331;53.578;9.760;2023-04-03T02:57:03;-0.50;99.90
56428;DHT22;42331;53.578;9.760;2023-04-03T02:59:35;-0.40;99.90
56428;DHT22;42331;53.578;9.760;2023-04-03T03:02:09;-0.40;99.90
56428;DHT22;42331;53.578;9.760;2023-04-03T03:04:40;-0.40;99.90
56428;DHT22;42331;53.578;9.760;2023-04-03T03:07:11;-0.50;99.90
56428;DHT22;42331;53.578;9.760;2023-04-03T03:09:42;-0.40;99.90
56428;DHT22;42331;53.578;9.760;2023-04-03T03:12:12;-0.40;99.90
56428;DHT22;42331;53.578;9.760;2023-04-03T03:14:43;-0.40;99.90
56428;DHT22;42331;53.578;9.760;2023-04-03T03:17:14;-0.40;99.90
56428;DHT22;42331;53.578;9.760;2023-04-03T03:19:44;-0.40;99.90
56428;DHT22;42331;53.578;9.760;2023-04-03T03:22:16;-0.40;99.90
56428;DHT22;42331;53.578;9.760;2023-04-03T03:24:47;-0.40;99.90
56428;DHT22;42331;53.578;9.760;2023-04-03T03:27:18;-0.40;99.90
56428;DHT22;42331;53.578;9.760;2023-04-03T03:29:48;-0.40;99.90
56428;DHT22;42331;53.578;9.760;2023-04-03T03:32:19;-0.40;99.90
56428;DHT22;42331;53.578;9.760;2023-04-03T03:34:50;-0.50;99.90
56428;DHT22;42331;53.578;9.760;2023-04-03T03:37:21;-0.50;99.90
56428;DHT22;42331;53.578;9.760;2023-04-03T03:39:52;-0.50;99.90
56428;DHT22;42331;53.578;9.760;2023-04-03T03:42:22;-0.50;99.90
56428;DHT22;42331;53.578;9.760;2023-04-03T03:44:53;-0.50;99.90
56428;DHT22;42331;53.578;9.760;2023-04-03T03:47:24;-0.60;99.90
56428;DHT22;42331;53.578;9.760;2023-04-03T03:49:55;-0.60;99.90
56428;DHT22;42331;53.578;9.760;2023-04-03T03:52:26;-0.60;99.90
56428;DHT22;42331;53.578;9.760;2023-04-03T03:54:57;-0.70;99.90
56428;DHT22;42331;53.578;9.760;2023-04-03T03:57:28;-0.70;99.90
56428;DHT22;42331;53.578;9.760;2023-04-03T03:59:59;-0.70;99.90
56428;DHT22;42331;53.578;9.760;2023-04-03T04:02:30;-0.70;99.90
56428;DHT22;42331;53.578;9.760;2023-04-03T04:05:00;-0.70;99.90
56428;DHT22;42331;53.578;9.760;2023-04-03T04:07:31;-0.70;99.90
56428;DHT22;42331;53.578;9.760;2023-04-03T04:10:03;-0.70;99.90
56428;DHT22;42331;53.578;9.760;2023-04-03T04:12:33;-0.70;99.90
56428;DHT22;42331;53.578;9.760;2023-04-03T04:15:06;-0.70;99.90
56428;DHT22;42331;53.578;9.760;2023-04-03T04:17:37;-0.70;99.90
56428;DHT22;42331;53.578;9.760;2023-04-03T04:20:08;-0.70;99.90
56428;DHT22;42331;53.578;9.760;2023-04-03T04:22:39;-0.70;99.90
56428;DHT22;42331;53.578;9.760;2023-04-03T04:25:09;-0.80;99.90
56428;DHT22;42331;53.578;9.760;2023-04-03T04:27:40;-0.80;99.90
56428;DHT22;42331;53.578;9.760;2023-04-03T04:30:12;-0.70;99.90
56428;DHT22;42331;53.578;9.760;2023-04-03T04:32:43;-0.70;99.90
56428;DHT22;42331;53.578;9.760;2023-04-03T04:35:14;-0.80;99.90
56428;DHT22;42331;53.578;9.760;2023-04-03T04:37:45;-0.80;99.90
56428;DHT22;42331;53.578;9.760;2023-04-03T04:40:16;-0.70;99.90
56428;DHT22;42331;53.578;9.760;2023-04-03T04:42:46;-0.80;99.90
56428;DHT22;42331;53.578;9.760;2023-04-03T04:45:17;-0.80;99.90
56428;DHT22;42331;53.578;9.760;2023-04-03T04:47:48;-0.80;99.90
56428;DHT22;42331;53.578;9.760;2023-04-03T04:50:21;-0.80;99.90
56428;DHT22;42331;53.578;9.760;2023-04-03T04:52:52;-0.70;99.90
56428;DHT22;42331;53.578;9.760;2023-04-03T04:55:23;-0.80;99.90
56428;DHT22;42331;53.578;9.760;2023-04-03T04:57:54;-0.80;99.90
56428;DHT22;42331;53.578;9.760;2023-04-03T05:00:25;-0.80;99.90
56428;DHT22;42331;53.578;9.760;2023-04-03T05:02:56;-0.80;99.90
56428;DHT22;42331;53.578;9.760;2023-04-03T05:05:26;-0.80;99.90
56428;DHT22;42331;53.578;9.760;2023-04-03T05:07:58;-0.80;99.90
56428;DHT22;42331;53.578;9.760;2023-04-03T05:10:29;-0.70;99.90
56428;DHT22;42331;53.578;9.760;2023-04-03T05:12:59;-0.70;99.90
56428;DHT22;42331;53.578;9.760;2023-04-03T05:15:30;-0.70;99.90
56428;DHT22;42331;53.578;9.760;2023-04-03T05:18:01;-0.70;99.90
56428;DHT22;42331;53.578;9.760;2023-04-03T05:20:32;-0.70;99.90
56428;DHT22;42331;53.578;9.760;2023-04-03T05:23:03;-0.70;99.90
56428;DHT22;42331;53.578;9.760;2023-04-03T05:25:34;-0.60;99.90
56428;DHT22;42331;53.578;9.760;2023-04-03T05:28:05;-0.60;99.90
56428;DHT22;42331;53.578;9.760;2023-04-03T05:30:36;-0.60;99.90
56428;DHT22;42331;53.578;9.760;2023-04-03T05:33:06;-0.60;99.90
56428;DHT22;42331;53.578;9.760;2023-04-03T05:35:37;-0.60;99.90
56428;DHT22;42331;53.578;9.760;2023-04-03T05:38:11;-0.50;99.90
56428;DHT22;42331;53.578;9.760;2023-04-03T05:40:42;-0.50;99.90
56428;DHT22;42331;53.578;9.760;2023-04-03T05:43:13;-0.50;99.90
56428;DHT22;42331;53.578;9.760;2023-04-03T05:45:43;-0.40;99.90
56428;DHT22;42331;53.578;9.760;2023-04-03T05:48:14;-0.30;99.90
56428;DHT22;42331;53.578;9.760;2023-04-03T05:50:46;-0.20;99.90
56428;DHT22;42331;53.578;9.760;2023-04-03T05:53:27;-0.20;99.90
56428;DHT22;42331;53.578;9.760;2023-04-03T05:55:59;-0.10;99.90
56428;DHT22;42331;53.578;9.760;2023-04-03T05:58:30;-0.10;99.90
56428;DHT22;42331;53.578;9.760;2023-04-03T06:01:00;0.10;99.90
56428;DHT22;42331;53.578;9.760;2023-04-03T06:03:32;0.20;99.90
56428;DHT22;42331;53.578;9.760;2023-04-03T06:06:04;0.30;99.90
56428;DHT22;42331;53.578;9.760;2023-04-03T06:08:34;0.40;99.90
56428;DHT22;42331;53.578;9.760;2023-04-03T06:11:05;0.40;99.90
56428;DHT22;42331;53.578;9.760;2023-04-03T06:13:36;0.50;99.90
56428;DHT22;42331;53.578;9.760;2023-04-03T06:16:12;0.60;99.90
56428;DHT22;42331;53.578;9.760;2023-04-03T06:18:44;0.70;99.90
56428;DHT22;42331;53.578;9.760;2023-04-03T06:21:15;0.80;99.90
56428;DHT22;42331;53.578;9.760;2023-04-03T06:23:46;1.00;99.90
56428;DHT22;42331;53.578;9.760;2023-04-03T06:26:17;1.00;99.90
56428;DHT22;42331;53.578;9.760;2023-04-03T06:28:47;1.10;99.90
56428;DHT22;42331;53.578;9.760;2023-04-03T06:31:18;1.10;99.90
56428;DHT22;42331;53.578;9.760;2023-04-03T06:33:49;1.30;99.90
56428;DHT22;42331;53.578;9.760;2023-04-03T06:36:20;1.40;99.90
56428;DHT22;42331;53.578;9.760;2023-04-03T06:38:51;1.50;99.90
56428;DHT22;42331;53.578;9.760;2023-04-03T06:41:22;1.50;99.90
56428;DHT22;42331;53.578;9.760;2023-04-03T06:43:53;1.70;99.90
56428;DHT22;42331;53.578;9.760;2023-04-03T06:46:25;1.80;99.90
56428;DHT22;42331;53.578;9.760;2023-04-03T06:48:56;2.00;99.90
56428;DHT22;42331;53.578;9.760;2023-04-03T06:51:28;2.00;99.90
56428;DHT22;42331;53.578;9.760;2023-04-03T06:54:00;2.10;99.90
56428;DHT22;42331;53.578;9.760;2023-04-03T06:56:30;2.10;99.90
56428;DHT22;42331;53.578;9.760;2023-04-03T06:59:02;2.10;99.90
56428;DHT22;42331;53.578;9.760;2023-04-03T07:01:33;2.20;99.90
56428;DHT22;42331;53.578;9.760;2023-04-03T07:04:04;2.20;99.90
56428;DHT22;42331;53.578;9.760;2023-04-03T07:06:34;2.30;99.90
56428;DHT22;42331;53.578;9.760;2023-04-03T07:09:05;2.40;99.90
56428;DHT22;42331;53.578;9.760;2023-04-03T07:11:36;2.50;99.90
56428;DHT22;42331;53.578;9.760;2023-04-03T07:14:07;2.50;99.90
56428;DHT22;42331;53.578;9.760;2023-04-03T07:16:38;2.60;99.90
56428;DHT22;42331;53.578;9.760;2023-04-03T07:19:08;2.60;99.90
56428;DHT22;42331;53.578;9.760;2023-04-03T07:21:40;2.70;99.90
56428;DHT22;42331;53.578;9.760;2023-04-03T07:24:12;2.70;99.90
56428;DHT22;42331;53.578;9.760;2023-04-03T07:26:43;2.80;99.90
56428;DHT22;42331;53.578;9.760;2023-04-03T07:29:15;2.90;99.90
56428;DHT22;42331;53.578;9.760;2023-04-03T07:31:46;3.00;99.90
56428;DHT22;42331;53.578;9.760;2023-04-03T07:34:17;3.20;99.90
56428;DHT22;42331;53.578;9.760;2023-04-03T07:36:48;3.30;99.90
56428;DHT22;42331;53.578;9.760;2023-04-03T07:39:18;3.40;99.90
56428;DHT22;42331;53.578;9.760;2023-04-03T07:41:49;3.50;99.90
56428;DHT22;42331;53.578;9.760;2023-04-03T07:44:20;3.50;99.90
56428;DHT22;42331;53.578;9.760;2023-04-03T07:46:51;3.60;99.90
56428;DHT22;42331;53.578;9.760;2023-04-03T07:49:21;3.70;99.90
56428;DHT22;42331;53.578;9.760;2023-04-03T07:51:54;3.90;99.90
56428;DHT22;42331;53.578;9.760;2023-04-03T07:54:25;3.90;99.90
56428;DHT22;42331;53.578;9.760;2023-04-03T07:56:56;4.20;99.90
56428;DHT22;42331;53.578;9.760;2023-04-03T07:59:27;4.30;99.90
56428;DHT22;42331;53.578;9.760;2023-04-03T08:01:58;4.30;99.90
56428;DHT22;42331;53.578;9.760;2023-04-03T08:04:29;4.40;99.90
56428;DHT22;42331;53.578;9.760;2023-04-03T08:07:01;4.50;99.90
56428;DHT22;42331;53.578;9.760;2023-04-03T08:09:31;4.50;99.90
56428;DHT22;42331;53.578;9.760;2023-04-03T08:12:02;4.60;99.90
56428;DHT22;42331;53.578;9.760;2023-04-03T08:14:33;4.70;99.90
56428;DHT22;42331;53.578;9.760;2023-04-03T08:17:08;4.70;99.90
56428;DHT22;42331;53.578;9.760;2023-04-03T08:19:41;4.80;99.90
56428;DHT22;42331;53.578;9.760;2023-04-03T08:22:12;5.00;99.90
56428;DHT22;42331;53.578;9.760;2023-04-03T08:24:43;5.20;99.90
56428;DHT22;42331;53.578;9.760;2023-04-03T08:27:14;5.40;99.90
56428;DHT22;42331;53.578;9.760;2023-04-03T08:29:44;5.40;99.90
56428;DHT22;42331;53.578;9.760;2023-04-03T08:32:16;5.60;99.90
56428;DHT22;42331;53.578;9.760;2023-04-03T08:34:46;5.50;99.90
56428;DHT22;42331;53.578;9.760;2023-04-03T08:37:17;5.40;99.90
56428;DHT22;42331;53.578;9.760;2023-04-03T08:39:48;5.30;99.90
56428;DHT22;42331;53.578;9.760;2023-04-03T08:45:20;5.30;99.90
56428;DHT22;42331;53.578;9.760;2023-04-03T08:48:03;5.40;99.90
56428;DHT22;42331;53.578;9.760;2023-04-03T08:50:43;5.40;99.90
56428;DHT22;42331;53.578;9.760;2023-04-03T08:53:23;5.40;99.90
56428;DHT22;42331;53.578;9.760;2023-04-03T08:55:55;5.60;99.90
56428;DHT22;42331;53.578;9.760;2023-04-03T08:58:33;5.70;99.90
56428;DHT22;42331;53.578;9.760;2023-04-03T09:03:48;5.70;99.90
56428;DHT22;42331;53.578;9.760;2023-04-03T09:15:24;6.20;99.90
56428;DHT22;42331;53.578;9.760;2023-04-03T09:18:04;6.10;99.90
56428;DHT22;42331;53.578;9.760;2023-04-03T09:23:30;6.10;99.90
56428;DHT22;42331;53.578;9.760;2023-04-03T09:26:06;6.10;99.90
56428;DHT22;42331;53.578;9.760;2023-04-03T09:28:40;6.20;99.90
56428;DHT22;42331;53.578;9.760;2023-04-03T09:31:39;6.30;99.90
56428;DHT22;42331;53.578;9.760;2023-04-03T09:36:55;7.10;99.90
56428;DHT22;42331;53.578;9.760;2023-04-03T09:39:28;6.90;99.90
56428;DHT22;42331;53.578;9.760;2023-04-03T09:42:14;6.70;99.90
56428;DHT22;42331;53.578;9.760;2023-04-03T09:44:56;6.60;99.90
56428;DHT22;42331;53.578;9.760;2023-04-03T09:47:33;7.20;99.90
56428;DHT22;42331;53.578;9.760;2023-04-03T09:52:47;7.70;99.90
56428;DHT22;42331;53.578;9.760;2023-04-03T09:55:20;8.10;99.90
56428;DHT22;42331;53.578;9.760;2023-04-03T09:57:59;8.30;99.90
56428;DHT22;42331;53.578;9.760;2023-04-03T10:00:36;8.40;99.90
56428;DHT22;42331;53.578;9.760;2023-04-03T10:03:31;8.50;99.90
56428;DHT22;42331;53.578;9.760;2023-04-03T10:06:03;8.40;99.90
56428;DHT22;42331;53.578;9.760;2023-04-03T10:08:35;8.30;99.90
56428;DHT22;42331;53.578;9.760;2023-04-03T10:11:14;8.20;99.90
56428;DHT22;42331;53.578;9.760;2023-04-03T10:13:58;8.70;99.90
56428;DHT22;42331;53.578;9.760;2023-04-03T10:16:41;9.10;99.90
56428;DHT22;42331;53.578;9.760;2023-04-03T10:19:29;9.40;99.90
56428;DHT22;42331;53.578;9.760;2023-04-03T10:27:59;11.90;99.90
56428;DHT22;42331;53.578;9.760;2023-04-03T10:36:10;11.80;99.90
56428;DHT22;42331;53.578;9.760;2023-04-03T10:38:51;9.60;99.90
56428;DHT22;42331;53.578;9.760;2023-04-03T10:47:21;9.60;99.90
56428;DHT22;42331;53.578;9.760;2023-04-03T10:57:56;12.30;99.90
56428;DHT22;42331;53.578;9.760;2023-04-03T11:00:48;12.70;99.90
56428;DHT22;42331;53.578;9.760;2023-04-03T11:06:01;13.90;99.90
56428;DHT22;42331;53.578;9.760;2023-04-03T11:08:55;14.40;98.60
56428;DHT22;42331;53.578;9.760;2023-04-03T11:11:31;16.10;98.30
56428;DHT22;42331;53.578;9.760;2023-04-03T11:14:18;16.20;95.40
56428;DHT22;42331;53.578;9.760;2023-04-03T11:22:42;8.90;99.90
56428;DHT22;42331;53.578;9.760;2023-04-03T11:25:20;8.10;99.90
56428;DHT22;42331;53.578;9.760;2023-04-03T11:28:02;7.90;99.90
56428;DHT22;42331;53.578;9.760;2023-04-03T11:30:46;7.80;99.90
56428;DHT22;42331;53.578;9.760;2023-04-03T11:33:41;8.00;99.90
56428;DHT22;42331;53.578;9.760;2023-04-03T11:36:27;8.40;99.90
56428;DHT22;42331;53.578;9.760;2023-04-03T11:39:02;8.40;99.90
56428;DHT22;42331;53.578;9.760;2023-04-03T11:41:37;8.50;99.90
56428;DHT22;42331;53.578;9.760;2023-04-03T11:47:06;8.50;99.90
56428;DHT22;42331;53.578;9.760;2023-04-03T11:49:55;8.50;99.90
56428;DHT22;42331;53.578;9.760;2023-04-03T12:16:29;8.30;99.90
56428;DHT22;42331;53.578;9.760;2023-04-03T12:29:34;8.40;99.90
56428;DHT22;42331;53.578;9.760;2023-04-03T12:32:40;8.40;99.90
56428;DHT22;42331;53.578;9.760;2023-04-03T12:35:35;8.40;99.90
56428;DHT22;42331;53.578;9.760;2023-04-03T12:49:53;8.00;99.90
56428;DHT22;42331;53.578;9.760;2023-04-03T12:52:31;8.20;99.90
56428;DHT22;42331;53.578;9.760;2023-04-03T12:55:07;8.00;99.90
56428;DHT22;42331;53.578;9.760;2023-04-03T12:57:38;8.10;99.90
56428;DHT22;42331;53.578;9.760;2023-04-03T13:03:03;8.20;99.90
56428;DHT22;42331;53.578;9.760;2023-04-03T13:05:35;8.30;99.90
56428;DHT22;42331;53.578;9.760;2023-04-03T13:08:10;8.40;99.90
56428;DHT22;42331;53.578;9.760;2023-04-03T13:10:58;8.40;99.90
56428;DHT22;42331;53.578;9.760;2023-04-03T13:13:29;8.60;99.90
56428;DHT22;42331;53.578;9.760;2023-04-03T13:16:09;8.70;99.90
56428;DHT22;42331;53.578;9.760;2023-04-03T13:18:40;8.70;99.90
56428;DHT22;42331;53.578;9.760;2023-04-03T13:21:16;8.50;99.90
56428;DHT22;42331;53.578;9.760;2023-04-03T13:23:50;8.20;99.90
56428;DHT22;42331;53.578;9.760;2023-04-03T13:26:24;7.90;99.90
56428;DHT22;42331;53.578;9.760;2023-04-03T13:29:03;7.90;99.90
56428;DHT22;42331;53.578;9.760;2023-04-03T13:31:37;7.90;99.90
56428;DHT22;42331;53.578;9.760;2023-04-03T13:39:31;7.70;99.90
56428;DHT22;42331;53.578;9.760;2023-04-03T13:42:37;7.70;99.90
56428;DHT22;42331;53.578;9.760;2023-04-03T13:45:18;7.70;99.90
56428;DHT22;42331;53.578;9.760;2023-04-03T13:47:53;8.00;99.90
56428;DHT22;42331;53.578;9.760;2023-04-03T13:50:26;8.30;99.90
56428;DHT22;42331;53.578;9.760;2023-04-03T13:53:12;8.40;99.90
56428;DHT22;42331;53.578;9.760;2023-04-03T13:56:09;8.60;99.90
56428;DHT22;42331;53.578;9.760;2023-04-03T13:58:57;8.40;99.90
56428;DHT22;42331;53.578;9.760;2023-04-03T14:07:11;8.50;99.90
56428;DHT22;42331;53.578;9.760;2023-04-03T14:09:42;8.40;99.90
56428;DHT22;42331;53.578;9.760;2023-04-03T14:12:38;8.20;99.90
56428;DHT22;42331;53.578;9.760;2023-04-03T14:15:23;8.30;99.90
56428;DHT22;42331;53.578;9.760;2023-04-03T14:17:54;8.20;99.90
56428;DHT22;42331;53.578;9.760;2023-04-03T14:20:26;8.00;99.90
56428;DHT22;42331;53.578;9.760;2023-04-03T14:22:57;8.00;99.90
56428;DHT22;42331;53.578;9.760;2023-04-03T14:25:29;8.10;99.90
56428;DHT22;42331;53.578;9.760;2023-04-03T14:28:00;7.90;99.90
56428;DHT22;42331;53.578;9.760;2023-04-03T14:30:33;7.90;99.90
56428;DHT22;42331;53.578;9.760;2023-04-03T14:33:03;7.90;99.90
56428;DHT22;42331;53.578;9.760;2023-04-03T14:35:34;7.90;99.90
56428;DHT22;42331;53.578;9.760;2023-04-03T14:38:33;8.00;99.90
56428;DHT22;42331;53.578;9.760;2023-04-03T14:41:03;7.90;99.90
56428;DHT22;42331;53.578;9.760;2023-04-03T14:43:34;8.00;99.90
56428;DHT22;42331;53.578;9.760;2023-04-03T14:46:05;8.00;99.90
56428;DHT22;42331;53.578;9.760;2023-04-03T14:48:40;7.90;99.90
56428;DHT22;42331;53.578;9.760;2023-04-03T14:51:12;7.90;99.90
56428;DHT22;42331;53.578;9.760;2023-04-03T14:53:44;8.30;99.90
56428;DHT22;42331;53.578;9.760;2023-04-03T14:56:23;8.20;99.90
56428;DHT22;42331;53.578;9.760;2023-04-03T14:58:59;8.10;99.90
56428;DHT22;42331;53.578;9.760;2023-04-03T15:01:30;7.80;99.90
56428;DHT22;42331;53.578;9.760;2023-04-03T15:04:01;7.90;99.90
56428;DHT22;42331;53.578;9.760;2023-04-03T15:06:33;7.90;99.90
56428;DHT22;42331;53.578;9.760;2023-04-03T15:09:04;8.00;99.90
56428;DHT22;42331;53.578;9.760;2023-04-03T15:11:34;8.20;99.90
56428;DHT22;42331;53.578;9.760;2023-04-03T15:14:05;8.40;99.90
56428;DHT22;42331;53.578;9.760;2023-04-03T15:16:36;8.40;99.90
56428;DHT22;42331;53.578;9.760;2023-04-03T15:19:07;8.40;99.90
56428;DHT22;42331;53.578;9.760;2023-04-03T15:21:38;8.40;99.90
56428;DHT22;42331;53.578;9.760;2023-04-03T15:24:09;8.10;99.90
56428;DHT22;42331;53.578;9.760;2023-04-03T15:26:40;7.90;99.90
56428;DHT22;42331;53.578;9.760;2023-04-03T15:29:12;8.10;99.90
56428;DHT22;42331;53.578;9.760;2023-04-03T15:31:42;7.90;99.90
56428;DHT22;42331;53.578;9.760;2023-04-03T15:34:13;7.80;99.90
56428;DHT22;42331;53.578;9.760;2023-04-03T15:36:44;7.60;99.90
56428;DHT22;42331;53.578;9.760;2023-04-03T15:39:14;7.50;99.90
56428;DHT22;42331;53.578;9.760;2023-04-03T15:41:46;7.60;99.90
56428;DHT22;42331;53.578;9.760;2023-04-03T15:44:17;7.80;99.90
56428;DHT22;42331;53.578;9.760;2023-04-03T15:46:49;7.90;99.90
56428;DHT22;42331;53.578;9.760;2023-04-03T15:49:21;7.90;99.90
56428;DHT22;42331;53.578;9.760;2023-04-03T15:51:52;7.80;99.90
56428;DHT22;42331;53.578;9.760;2023-04-03T15:54:23;7.80;99.90
56428;DHT22;42331;53.578;9.760;2023-04-03T15:56:55;7.60;99.90
56428;DHT22;42331;53.578;9.760;2023-04-03T15:59:26;7.40;99.90
56428;DHT22;42331;53.578;9.760;2023-04-03T16:01:57;7.30;99.90
56428;DHT22;42331;53.578;9.760;2023-04-03T16:04:29;7.20;99.90
56428;DHT22;42331;53.578;9.760;2023-04-03T16:07:03;7.10;99.90
56428;DHT22;42331;53.578;9.760;2023-04-03T16:09:35;7.20;99.90
56428;DHT22;42331;53.578;9.760;2023-04-03T16:12:06;7.20;99.90
56428;DHT22;42331;53.578;9.760;2023-04-03T16:14:36;7.30;99.90
56428;DHT22;42331;53.578;9.760;2023-04-03T16:17:07;7.40;99.90
56428;DHT22;42331;53.578;9.760;2023-04-03T16:19:38;7.30;99.90
56428;DHT22;42331;53.578;9.760;2023-04-03T16:22:09;7.30;99.90
56428;DHT22;42331;53.578;9.760;2023-04-03T16:24:40;7.30;99.90
56428;DHT22;42331;53.578;9.760;2023-04-03T16:27:11;7.20;99.90
56428;DHT22;42331;53.578;9.760;2023-04-03T16:29:41;7.30;99.90
56428;DHT22;42331;53.578;9.760;2023-04-03T16:32:13;7.20;99.90
56428;DHT22;42331;53.578;9.760;2023-04-03T16:34:44;7.20;99.90
56428;DHT22;42331;53.578;9.760;2023-04-03T16:37:16;7.10;99.90
56428;DHT22;42331;53.578;9.760;2023-04-03T16:39:46;7.10;99.90
56428;DHT22;42331;53.578;9.760;2023-04-03T16:42:17;7.00;99.90
56428;DHT22;42331;53.578;9.760;2023-04-03T16:44:47;7.00;99.90
56428;DHT22;42331;53.578;9.760;2023-04-03T16:47:18;7.00;99.90
56428;DHT22;42331;53.578;9.760;2023-04-03T16:49:50;7.00;99.90
56428;DHT22;42331;53.578;9.760;2023-04-03T16:52:20;7.20;99.90
56428;DHT22;42331;53.578;9.760;2023-04-03T16:54:51;7.30;99.90
56428;DHT22;42331;53.578;9.760;2023-04-03T16:57:25;7.20;99.90
56428;DHT22;42331;53.578;9.760;2023-04-03T16:59:56;7.10;99.90
56428;DHT22;42331;53.578;9.760;2023-04-03T17:02:27;7.00;99.90
56428;DHT22;42331;53.578;9.760;2023-04-03T17:04:58;6.90;99.90
56428;DHT22;42331;53.578;9.760;2023-04-03T17:07:28;6.90;99.90
56428;DHT22;42331;53.578;9.760;2023-04-03T17:09:59;6.70;99.90
56428;DHT22;42331;53.578;9.760;2023-04-03T17:12:30;6.70;99.90
56428;DHT22;42331;53.578;9.760;2023-04-03T17:15:01;6.60;99.90
56428;DHT22;42331;53.578;9.760;2023-04-03T17:17:32;6.40;99.90
56428;DHT22;42331;53.578;9.760;2023-04-03T17:20:03;6.40;99.90
56428;DHT22;42331;53.578;9.760;2023-04-03T17:22:34;6.30;99.90
56428;DHT22;42331;53.578;9.760;2023-04-03T17:25:05;6.20;99.90
56428;DHT22;42331;53.578;9.760;2023-04-03T17:27:36;6.20;99.90
56428;DHT22;42331;53.578;9.760;2023-04-03T17:30:07;6.10;99.90
56428;DHT22;42331;53.578;9.760;2023-04-03T17:32:38;6.00;99.90
56428;DHT22;42331;53.578;9.760;2023-04-03T17:35:09;6.00;99.90
56428;DHT22;42331;53.578;9.760;2023-04-03T17:37:40;5.90;99.90
56428;DHT22;42331;53.578;9.760;2023-04-03T17:40:11;5.80;99.90
56428;DHT22;42331;53.578;9.760;2023-04-03T17:42:43;5.70;99.90
56428;DHT22;42331;53.578;9.760;2023-04-03T17:45:14;5.70;99.90
56428;DHT22;42331;53.578;9.760;2023-04-03T17:47:45;5.60;99.90
56428;DHT22;42331;53.578;9.760;2023-04-03T17:50:15;5.50;99.90
56428;DHT22;42331;53.578;9.760;2023-04-03T17:52:46;5.50;99.90
56428;DHT22;42331;53.578;9.760;2023-04-03T17:55:17;5.40;99.90
56428;DHT22;42331;53.578;9.760;2023-04-03T17:57:48;5.30;99.90
56428;DHT22;42331;53.578;9.760;2023-04-03T18:00:19;5.40;99.90
56428;DHT22;42331;53.578;9.760;2023-04-03T18:02:53;5.30;99.90
56428;DHT22;42331;53.578;9.760;2023-04-03T18:05:28;5.20;99.90
56428;DHT22;42331;53.578;9.760;2023-04-03T18:07:59;5.20;99.90
56428;DHT22;42331;53.578;9.760;2023-04-03T18:10:31;5.10;99.90
56428;DHT22;42331;53.578;9.760;2023-04-03T18:13:04;5.10;99.90
56428;DHT22;42331;53.578;9.760;2023-04-03T18:15:35;5.00;99.90
56428;DHT22;42331;53.578;9.760;2023-04-03T18:18:07;5.00;99.90
56428;DHT22;42331;53.578;9.760;2023-04-03T18:20:38;5.00;99.90
56428;DHT22;42331;53.578;9.760;2023-04-03T18:23:09;4.90;99.90
56428;DHT22;42331;53.578;9.760;2023-04-03T18:25:40;4.80;99.90
56428;DHT22;42331;53.578;9.760;2023-04-03T18:28:11;4.80;99.90
56428;DHT22;42331;53.578;9.760;2023-04-03T18:30:41;4.80;99.90